Time;durP1;ratioP1;P1;durP2;ratioP2;P2;SDS_P1;SDS_P2;PMS_P1;PMS_P2;Temp;Humidity;BMP_temperature;BMP_pressure;BME280_temperature;BME280_humidity;BME280_pressure;Samples;Min_cycle;Max_cycle;Signal;HPM_P1;HPM_P2
2022/06/15 00:02:14;;;;;;;7.17;2.80;;;;;;;;;;5049793;28;20252;-83
2022/06/15 00:04:43;;;;;;;5.77;2.53;;;;;;;;;;5050312;28;20238;-83
2022/06/15 00:07:10;;;;;;;4.27;2.30;;;;;;;;;;5050316;28;20200;-83
2022/06/15 00:09:37;;;;;;;3.20;2.10;;;;;;;;;;5050467;28;20283;-88
2022/06/15 00:12:06;;;;;;;5.23;2.40;;;;;;;;;;5029880;28;20205;-86
2022/06/15 00:14:33;;;;;;;3.47;2.30;;;;;;;;;;5030279;28;20323;-87
2022/06/15 00:17:00;;;;;;;4.93;2.33;;;;;;;;;;5029139;28;20196;-86
2022/06/15 00:19:27;;;;;;;2.97;2.60;;;;;;;;;;5030610;28;20260;-86
2022/06/15 00:21:55;;;;;;;3.23;1.90;;;;;;;;;;5030296;28;20572;-86
2022/06/15 00:24:23;;;;;;;3.30;2.00;;;;;;;;;;5030348;28;20210;-85
2022/06/15 00:26:50;;;;;;;3.40;2.37;;;;;;;;;;5029778;28;20207;-86
2022/06/15 00:29:17;;;;;;;3.67;3.00;;;;;;;;;;5030043;28;20698;-86
2022/06/15 00:31:44;;;;;;;2.87;2.30;;;;;;;;;;5029963;28;20206;-86
2022/06/15 00:34:11;;;;;;;4.23;2.30;;;;;;;;;;5029839;28;20256;-85
2022/06/15 00:36:38;;;;;;;6.00;2.37;;;;;;;;;;5029714;28;20254;-86
2022/06/15 00:39:07;;;;;;;2.70;2.40;;;;;;;;;;5030001;28;20200;-86
2022/06/15 00:41:36;;;;;;;4.97;2.43;;;;;;;;;;5029889;28;20191;-86
2022/06/15 00:44:19;;;;;;;2.60;2.40;;;;;;;;;;5029698;28;20678;-86
2022/06/15 00:46:48;;;;;;;2.43;2.10;;;;;;;;;;5029320;28;20237;-85
2022/06/15 00:49:19;;;;;;;3.37;2.00;;;;;;;;;;5029336;28;20258;-87
2022/06/15 00:51:46;;;;;;;2.87;2.20;;;;;;;;;;5029984;28;20565;-86
2022/06/15 00:54:15;;;;;;;2.53;2.27;;;;;;;;;;5029590;28;20197;-86
2022/06/15 00:56:42;;;;;;;2.80;2.60;;;;;;;;;;5029959;28;20725;-86
2022/06/15 00:59:14;;;;;;;6.60;2.17;;;;;;;;;;5029490;28;20251;-86
2022/06/15 01:01:41;;;;;;;2.97;2.60;;;;;;;;;;5029319;28;20238;-86
2022/06/15 01:04:08;;;;;;;2.53;2.33;;;;;;;;;;5029642;28;20207;-86
2022/06/15 01:06:42;;;;;;;2.60;1.87;;;;;;;;;;5029750;28;20205;-86
2022/06/15 01:09:18;;;;;;;4.10;2.40;;;;;;;;;;5029227;28;20715;-86
2022/06/15 01:11:58;;;;;;;2.97;2.57;;;;;;;;;;5029820;28;20638;-86
2022/06/15 01:15:06;;;;;;;2.40;2.20;;;;;;;;;;5029358;28;20727;-87
2022/06/15 01:17:43;;;;;;;4.50;2.37;;;;;;;;;;5023828;28;20226;-87
2022/06/15 01:20:30;;;;;;;2.77;2.57;;;;;;;;;;5049718;28;20316;-88
2022/06/15 01:23:26;;;;;;;2.60;2.40;;;;;;;;;;5049577;28;20658;-88
2022/06/15 01:26:08;;;;;;;4.73;2.20;;;;;;;;;;5049305;28;20587;-83
2022/06/15 01:28:43;;;;;;;3.53;2.60;;;;;;;;;;5049372;28;20236;-87
2022/06/15 01:31:17;;;;;;;5.07;2.77;;;;;;;;;;5049562;28;20256;-87
2022/06/15 01:33:52;;;;;;;6.63;2.53;;;;;;;;;;5049345;28;20258;-87
2022/06/15 01:36:25;;;;;;;4.17;2.80;;;;;;;;;;5049429;28;20203;-88
2022/06/15 01:38:58;;;;;;;3.93;3.03;;;;;;;;;;5049109;28;20749;-87
2022/06/15 01:41:30;;;;;;;3.03;2.70;;;;;;;;;;5049290;28;20199;-87
2022/06/15 01:44:00;;;;;;;3.97;2.43;;;;;;;;;;5048715;28;20244;-87
2022/06/15 01:46:29;;;;;;;3.27;2.57;;;;;;;;;;5048923;28;20652;-87
2022/06/15 01:48:58;;;;;;;2.70;2.50;;;;;;;;;;5049214;28;20628;-86
2022/06/15 01:51:31;;;;;;;3.93;2.53;;;;;;;;;;5048879;28;20753;-86
2022/06/15 01:54:01;;;;;;;3.93;2.30;;;;;;;;;;5048788;28;20183;-87
2022/06/15 01:56:31;;;;;;;3.03;2.60;;;;;;;;;;5049293;28;20641;-87
2022/06/15 01:59:01;;;;;;;3.27;2.60;;;;;;;;;;5049250;28;20208;-87
2022/06/15 02:01:36;;;;;;;3.53;2.43;;;;;;;;;;5049117;28;20221;-87
2022/06/15 02:04:09;;;;;;;3.87;2.67;;;;;;;;;;5048751;28;20218;-87
2022/06/15 02:06:41;;;;;;;2.43;2.20;;;;;;;;;;5049272;28;20187;-86
2022/06/15 02:09:14;;;;;;;2.53;2.30;;;;;;;;;;5048984;28;20216;-84
2022/06/15 02:11:43;;;;;;;2.80;2.63;;;;;;;;;;5048094;28;20196;-84
2022/06/15 02:14:14;;;;;;;3.30;2.63;;;;;;;;;;5048574;28;20195;-85
2022/06/15 02:16:45;;;;;;;3.60;2.43;;;;;;;;;;5048377;28;20187;-85
2022/06/15 02:19:14;;;;;;;5.17;2.40;;;;;;;;;;5048669;28;20182;-84
2022/06/15 02:21:43;;;;;;;3.43;3.13;;;;;;;;;;5028568;28;20211;-87
2022/06/15 02:24:14;;;;;;;4.60;2.30;;;;;;;;;;5028759;28;20228;-86
2022/06/15 02:26:41;;;;;;;3.53;2.50;;;;;;;;;;5028937;28;20214;-87
2022/06/15 02:29:13;;;;;;;3.70;2.30;;;;;;;;;;5029051;28;20191;-87
2022/06/15 02:31:43;;;;;;;2.70;2.50;;;;;;;;;;5028827;28;20187;-86
2022/06/15 02:34:10;;;;;;;5.27;2.60;;;;;;;;;;5028682;28;20688;-86
2022/06/15 02:36:37;;;;;;;3.57;2.37;;;;;;;;;;5041150;28;20674;-86
2022/06/15 02:39:06;;;;;;;2.17;2.07;;;;;;;;;;5049586;28;20206;-86
2022/06/15 02:41:34;;;;;;;3.87;2.60;;;;;;;;;;5052066;28;20279;-85
2022/06/15 02:44:02;;;;;;;3.73;2.50;;;;;;;;;;5052103;28;20287;-87
2022/06/15 02:46:33;;;;;;;2.73;2.53;;;;;;;;;;5051738;28;20238;-86
2022/06/15 02:49:01;;;;;;;5.00;2.70;;;;;;;;;;5051747;28;20192;-86
2022/06/15 02:51:32;;;;;;;3.97;2.83;;;;;;;;;;5051648;28;20202;-86
2022/06/15 02:54:03;;;;;;;7.53;2.90;;;;;;;;;;5051863;28;20236;-87
2022/06/15 02:56:30;;;;;;;8.50;3.03;;;;;;;;;;5051496;28;20183;-86
2022/06/15 02:58:58;;;;;;;3.73;2.40;;;;;;;;;;5051853;28;20250;-86
2022/06/15 03:01:26;;;;;;;3.07;2.50;;;;;;;;;;5051786;28;20208;-86
2022/06/15 03:03:53;;;;;;;3.70;2.67;;;;;;;;;;5051609;28;20275;-86
2022/06/15 03:06:27;;;;;;;3.07;2.77;;;;;;;;;;5051862;28;20202;-87
2022/06/15 03:08:55;;;;;;;3.10;2.80;;;;;;;;;;5051320;28;20187;-86
2022/06/15 03:11:24;;;;;;;5.43;2.47;;;;;;;;;;5051332;28;20198;-86
2022/06/15 03:13:51;;;;;;;3.60;2.77;;;;;;;;;;5051294;28;20201;-87
2022/06/15 03:16:18;;;;;;;2.77;2.57;;;;;;;;;;5051033;28;20194;-86
2022/06/15 03:18:45;;;;;;;2.60;2.33;;;;;;;;;;5051620;28;20587;-86
2022/06/15 03:21:13;;;;;;;4.17;2.87;;;;;;;;;;5051158;28;20258;-86
2022/06/15 03:23:41;;;;;;;3.43;2.80;;;;;;;;;;5051164;27;20225;-85
2022/06/15 03:26:08;;;;;;;4.83;2.70;;;;;;;;;;5049682;28;20198;-87
2022/06/15 03:28:36;;;;;;;3.17;2.63;;;;;;;;;;5051365;28;20191;-87
2022/06/15 03:31:03;;;;;;;4.67;2.53;;;;;;;;;;5051517;28;20198;-86
2022/06/15 03:33:30;;;;;;;3.90;2.60;;;;;;;;;;5051081;28;20238;-87
2022/06/15 03:35:58;;;;;;;3.10;2.50;;;;;;;;;;5034835;28;20199;-90
2022/06/15 03:38:25;;;;;;;3.60;3.30;;;;;;;;;;5031826;28;20283;-90
2022/06/15 03:40:53;;;;;;;2.70;2.50;;;;;;;;;;5031526;28;20203;-90
2022/06/15 03:43:20;;;;;;;5.47;2.63;;;;;;;;;;5031788;28;20282;-91
2022/06/15 03:45:47;;;;;;;3.93;2.90;;;;;;;;;;5031247;28;20242;-90
2022/06/15 03:48:15;;;;;;;5.77;3.00;;;;;;;;;;5050069;28;20573;-91
2022/06/15 03:50:42;;;;;;;3.60;3.30;;;;;;;;;;5051494;28;20190;-90
2022/06/15 03:53:10;;;;;;;6.50;3.13;;;;;;;;;;5050988;28;20702;-91
2022/06/15 03:55:38;;;;;;;11.03;2.70;;;;;;;;;;5051760;28;20207;-90
2022/06/15 03:58:06;;;;;;;2.97;2.57;;;;;;;;;;5051461;28;20193;-90
2022/06/15 04:00:34;;;;;;;2.40;2.20;;;;;;;;;;5051725;28;20751;-90
2022/06/15 04:03:01;;;;;;;3.53;2.83;;;;;;;;;;5051334;28;20706;-91
2022/06/15 04:05:32;;;;;;;13.53;2.90;;;;;;;;;;5051202;28;20255;-91
2022/06/15 04:10:44;;;;;;;3.33;2.27;;;;;;;;;;5051103;28;20178;-89
2022/06/15 04:13:14;;;;;;;2.33;2.13;;;;;;;;;;5051323;28;20202;-90
2022/06/15 04:15:41;;;;;;;2.60;2.40;;;;;;;;;;5051144;28;20186;-90
2022/06/15 04:18:08;;;;;;;6.40;2.97;;;;;;;;;;5051328;28;20270;-90
2022/06/15 04:20:36;;;;;;;3.80;2.90;;;;;;;;;;5051214;28;20279;-91
2022/06/15 04:23:05;;;;;;;2.83;2.60;;;;;;;;;;5051021;28;20306;-90
2022/06/15 04:25:35;;;;;;;4.87;2.73;;;;;;;;;;5051388;28;20203;-90
2022/06/15 04:28:03;;;;;;;5.60;2.93;;;;;;;;;;5051100;28;20290;-89
2022/06/15 04:30:31;;;;;;;5.40;2.17;;;;;;;;;;5051237;28;20201;-90
2022/06/15 04:32:58;;;;;;;3.40;2.50;;;;;;;;;;5051006;28;20227;-89
2022/06/15 04:35:26;;;;;;;5.10;2.47;;;;;;;;;;5051096;28;20250;-90
2022/06/15 04:37:54;;;;;;;7.23;2.60;;;;;;;;;;5050987;28;20260;-90
2022/06/15 04:40:21;;;;;;;5.07;2.57;;;;;;;;;;5051094;28;20197;-90
2022/06/15 04:42:48;;;;;;;4.10;3.20;;;;;;;;;;5050717;28;20206;-89
2022/06/15 04:45:16;;;;;;;3.87;2.93;;;;;;;;;;5050273;28;20306;-91
2022/06/15 04:47:45;;;;;;;2.70;2.50;;;;;;;;;;5050852;28;20265;-91
2022/06/15 04:50:14;;;;;;;2.90;2.53;;;;;;;;;;5050751;28;20193;-90
2022/06/15 04:52:41;;;;;;;4.13;2.97;;;;;;;;;;5050868;28;20194;-90
2022/06/15 04:55:09;;;;;;;7.60;2.77;;;;;;;;;;5050608;28;20195;-90
2022/06/15 04:57:36;;;;;;;2.87;2.67;;;;;;;;;;5050593;28;20194;-89
2022/06/15 05:00:05;;;;;;;4.83;2.40;;;;;;;;;;5050667;28;20202;-91
2022/06/15 05:02:33;;;;;;;4.97;2.87;;;;;;;;;;5049601;28;20198;-90
2022/06/15 05:05:01;;;;;;;2.77;2.53;;;;;;;;;;5050591;28;20229;-89
2022/06/15 05:07:28;;;;;;;4.13;2.67;;;;;;;;;;5050543;28;20624;-90
2022/06/15 05:09:56;;;;;;;2.80;2.60;;;;;;;;;;5050295;28;20684;-90
2022/06/15 05:12:23;;;;;;;2.97;2.27;;;;;;;;;;5050296;28;20195;-90
2022/06/15 05:14:50;;;;;;;5.77;2.97;;;;;;;;;;5050427;28;20270;-90
2022/06/15 05:17:18;;;;;;;3.93;2.30;;;;;;;;;;5050091;28;20217;-90
2022/06/15 05:19:45;;;;;;;2.93;2.63;;;;;;;;;;5050457;28;20198;-90
2022/06/15 05:22:14;;;;;;;2.30;2.10;;;;;;;;;;5050151;28;20255;-91
2022/06/15 05:24:41;;;;;;;3.03;2.53;;;;;;;;;;5050264;28;20224;-90
2022/06/15 05:27:08;;;;;;;3.23;2.60;;;;;;;;;;5050049;28;20197;-89
2022/06/15 05:29:37;;;;;;;4.03;3.13;;;;;;;;;;5050020;28;20231;-90
2022/06/15 05:32:04;;;;;;;3.37;3.07;;;;;;;;;;5049985;28;20302;-90
2022/06/15 05:34:31;;;;;;;3.03;2.60;;;;;;;;;;5050009;28;20204;-90
2022/06/15 05:36:58;;;;;;;6.07;2.70;;;;;;;;;;5049909;28;20195;-90
2022/06/15 05:39:27;;;;;;;3.73;3.37;;;;;;;;;;5050089;28;20265;-90
2022/06/15 05:41:54;;;;;;;4.30;2.70;;;;;;;;;;5049780;28;20204;-91
2022/06/15 05:44:25;;;;;;;6.40;2.70;;;;;;;;;;5049745;28;20228;-90
2022/06/15 05:46:57;;;;;;;3.47;2.60;;;;;;;;;;5049778;28;20260;-91
2022/06/15 05:49:24;;;;;;;2.90;2.60;;;;;;;;;;5050040;28;20190;-90
2022/06/15 05:51:52;;;;;;;3.47;2.53;;;;;;;;;;5049740;28;20194;-91
2022/06/15 05:54:19;;;;;;;5.33;2.30;;;;;;;;;;5049740;28;20254;-91
2022/06/15 05:56:48;;;;;;;3.83;2.47;;;;;;;;;;5049909;28;20194;-91
2022/06/15 05:59:15;;;;;;;5.00;2.30;;;;;;;;;;5049944;28;20194;-91
2022/06/15 06:01:43;;;;;;;6.00;3.10;;;;;;;;;;5049975;28;20682;-89
2022/06/15 06:04:12;;;;;;;2.80;2.10;;;;;;;;;;5049377;28;20743;-90
2022/06/15 06:06:40;;;;;;;3.63;2.00;;;;;;;;;;5050084;28;20629;-90
2022/06/15 06:09:07;;;;;;;2.40;1.70;;;;;;;;;;5049744;28;20255;-90
2022/06/15 06:11:34;;;;;;;5.17;2.37;;;;;;;;;;5049749;28;20212;-90
2022/06/15 06:14:08;;;;;;;3.23;2.50;;;;;;;;;;5051951;28;20316;-93
2022/06/15 06:16:36;;;;;;;4.37;3.07;;;;;;;;;;5033968;28;20217;-91
2022/06/15 06:19:03;;;;;;;3.00;1.93;;;;;;;;;;5033134;28;20248;-91
2022/06/15 06:21:30;;;;;;;2.97;2.40;;;;;;;;;;5033302;28;20299;-91
2022/06/15 06:23:57;;;;;;;2.40;2.20;;;;;;;;;;5032959;28;20691;-90
2022/06/15 06:26:26;;;;;;;5.27;2.60;;;;;;;;;;5032951;28;20247;-90
2022/06/15 06:28:54;;;;;;;3.67;1.90;;;;;;;;;;5033786;28;20213;-91
2022/06/15 06:31:22;;;;;;;2.63;2.40;;;;;;;;;;5032909;28;20629;-90
2022/06/15 06:33:50;;;;;;;2.77;2.57;;;;;;;;;;5032862;28;20258;-90
2022/06/15 06:36:20;;;;;;;4.30;2.30;;;;;;;;;;5033087;28;20203;-91
2022/06/15 06:38:47;;;;;;;2.90;2.60;;;;;;;;;;5032967;28;20202;-91
2022/06/15 06:41:18;;;;;;;4.27;2.10;;;;;;;;;;5032910;28;20195;-90
2022/06/15 06:43:45;;;;;;;3.50;2.33;;;;;;;;;;5032986;28;20284;-90
2022/06/15 06:46:12;;;;;;;4.70;3.20;;;;;;;;;;5032612;28;20615;-90
2022/06/15 06:48:41;;;;;;;3.50;2.20;;;;;;;;;;5032700;28;20199;-91
2022/06/15 06:51:08;;;;;;;5.23;2.30;;;;;;;;;;5032827;28;20199;-91
2022/06/15 06:53:35;;;;;;;4.60;2.50;;;;;;;;;;5032757;28;20683;-91
2022/06/15 06:56:03;;;;;;;3.70;2.33;;;;;;;;;;5032437;28;20672;-89
2022/06/15 06:58:30;;;;;;;3.83;2.60;;;;;;;;;;5032568;28;20206;-91
2022/06/15 07:00:57;;;;;;;3.10;2.23;;;;;;;;;;5032390;28;20258;-90
2022/06/15 07:03:25;;;;;;;2.63;2.43;;;;;;;;;;5032203;28;20710;-90
2022/06/15 07:06:00;;;;;;;2.40;2.20;;;;;;;;;;5032616;28;20203;-90
2022/06/15 07:08:27;;;;;;;2.60;2.33;;;;;;;;;;5032493;28;20194;-90
2022/06/15 07:10:54;;;;;;;2.07;1.97;;;;;;;;;;5032447;28;20199;-90
2022/06/15 07:13:21;;;;;;;3.13;2.43;;;;;;;;;;5032442;28;20203;-90
2022/06/15 07:15:48;;;;;;;3.60;2.00;;;;;;;;;;5032375;28;20191;-90
2022/06/15 07:18:15;;;;;;;2.30;2.10;;;;;;;;;;5032346;28;20261;-90
2022/06/15 07:20:42;;;;;;;2.50;2.10;;;;;;;;;;5032086;28;20195;-90
2022/06/15 07:23:11;;;;;;;3.17;2.07;;;;;;;;;;5031979;28;20251;-90
2022/06/15 07:25:38;;;;;;;4.93;2.23;;;;;;;;;;5031622;28;20223;-89
2022/06/15 07:28:06;;;;;;;2.40;1.97;;;;;;;;;;5031997;28;20252;-89
2022/06/15 07:30:33;;;;;;;8.87;2.80;;;;;;;;;;5032136;28;20202;-90
2022/06/15 07:33:00;;;;;;;2.60;2.00;;;;;;;;;;5032096;28;20206;-90
2022/06/15 07:35:30;;;;;;;4.50;1.80;;;;;;;;;;5031962;28;20199;-89
2022/06/15 07:37:57;;;;;;;2.73;2.00;;;;;;;;;;5032566;28;20187;-90
2022/06/15 07:40:26;;;;;;;2.10;2.00;;;;;;;;;;5032168;28;20608;-91
2022/06/15 07:42:55;;;;;;;4.37;2.10;;;;;;;;;;5031749;28;20248;-90
2022/06/15 07:45:24;;;;;;;4.13;2.40;;;;;;;;;;5031440;28;20234;-89
2022/06/15 07:50:36;;;;;;;2.90;2.20;;;;;;;;;;5031970;28;20201;-90
2022/06/15 07:53:04;;;;;;;3.67;2.50;;;;;;;;;;5031899;28;20281;-88
2022/06/15 07:55:35;;;;;;;2.87;2.40;;;;;;;;;;5031704;28;20194;-89
2022/06/15 07:58:02;;;;;;;4.60;2.30;;;;;;;;;;5031830;28;20179;-90
2022/06/15 08:00:30;;;;;;;2.90;1.80;;;;;;;;;;5031743;28;20199;-90
2022/06/15 08:02:58;;;;;;;2.40;2.20;;;;;;;;;;5031669;28;20744;-89
2022/06/15 08:05:26;;;;;;;4.20;2.50;;;;;;;;;;5031748;28;20609;-89
2022/06/15 08:07:53;;;;;;;3.80;2.20;;;;;;;;;;5031641;28;20202;-90
2022/06/15 08:10:24;;;;;;;2.83;2.10;;;;;;;;;;5031321;28;20202;-90
2022/06/15 08:12:52;;;;;;;6.27;4.33;;;;;;;;;;5031627;28;20194;-89
2022/06/15 08:15:20;;;;;;;5.77;2.47;;;;;;;;;;5031112;28;20191;-89
2022/06/15 08:17:50;;;;;;;2.30;2.10;;;;;;;;;;5031487;28;20202;-90
2022/06/15 08:20:20;;;;;;;3.57;2.90;;;;;;;;;;5031347;28;20198;-90
2022/06/15 08:22:49;;;;;;;3.73;2.37;;;;;;;;;;5031632;28;20199;-89
2022/06/15 08:25:19;;;;;;;6.37;2.70;;;;;;;;;;5031088;28;20275;-89
2022/06/15 08:27:46;;;;;;;2.53;2.33;;;;;;;;;;5031479;28;20636;-91
2022/06/15 08:30:15;;;;;;;2.40;2.23;;;;;;;;;;5031152;28;20251;-90
2022/06/15 08:32:43;;;;;;;3.03;1.90;;;;;;;;;;5031240;28;20203;-90
2022/06/15 08:35:11;;;;;;;2.90;2.27;;;;;;;;;;5031201;28;20199;-90
2022/06/15 08:37:38;;;;;;;3.67;2.27;;;;;;;;;;5030055;28;20428;-90
2022/06/15 08:40:06;;;;;;;2.80;2.33;;;;;;;;;;5031155;28;20195;-90
2022/06/15 08:42:40;;;;;;;5.37;2.27;;;;;;;;;;5031165;28;20590;-89
2022/06/15 08:45:12;;;;;;;2.77;2.27;;;;;;;;;;5030710;28;20706;-90
2022/06/15 08:47:56;;;;;;;3.43;1.80;;;;;;;;;;5031076;28;20191;-90
2022/06/15 08:50:32;;;;;;;2.63;2.27;;;;;;;;;;5030678;28;20647;-90
2022/06/15 08:53:05;;;;;;;3.60;2.40;;;;;;;;;;5030896;28;20563;-89
2022/06/15 08:55:37;;;;;;;2.97;2.10;;;;;;;;;;5031097;28;20613;-90
2022/06/15 08:58:12;;;;;;;4.23;2.43;;;;;;;;;;5030810;28;20190;-89
2022/06/15 09:00:41;;;;;;;2.50;2.30;;;;;;;;;;5030846;28;20220;-90
2022/06/15 09:03:21;;;;;;;2.50;2.07;;;;;;;;;;5030685;28;20207;-90
2022/06/15 09:05:53;;;;;;;2.47;1.93;;;;;;;;;;5030366;28;20210;-89
2022/06/15 09:08:44;;;;;;;2.87;2.07;;;;;;;;;;5030755;28;20191;-91
2022/06/15 09:11:19;;;;;;;5.20;1.93;;;;;;;;;;5030555;28;20180;-90
2022/06/15 09:13:55;;;;;;;2.70;2.50;;;;;;;;;;5030489;28;20226;-91
2022/06/15 09:16:29;;;;;;;2.17;2.07;;;;;;;;;;5030603;28;20187;-93
2022/06/15 09:19:02;;;;;;;3.47;2.27;;;;;;;;;;5030456;28;20239;-90
2022/06/15 09:21:32;;;;;;;1.73;1.63;;;;;;;;;;5030877;28;20186;-90
2022/06/15 09:24:03;;;;;;;2.70;2.23;;;;;;;;;;5030410;28;20689;-92
2022/06/15 09:26:34;;;;;;;2.50;2.30;;;;;;;;;;5030423;28;20260;-91
2022/06/15 09:29:04;;;;;;;2.37;2.07;;;;;;;;;;5030608;28;20216;-93
2022/06/15 09:31:35;;;;;;;2.67;2.03;;;;;;;;;;5029994;28;20198;-92
2022/06/15 09:34:05;;;;;;;4.10;2.43;;;;;;;;;;5030170;28;20302;-92
2022/06/15 09:36:35;;;;;;;2.57;2.47;;;;;;;;;;5030132;28;20662;-91
2022/06/15 09:39:02;;;;;;;3.53;2.10;;;;;;;;;;5030218;28;20199;-92
2022/06/15 09:41:36;;;;;;;3.03;2.40;;;;;;;;;;5030224;28;20207;-92
2022/06/15 09:44:12;;;;;;;2.57;2.10;;;;;;;;;;5029884;28;20635;-91
2022/06/15 09:46:44;;;;;;;9.23;2.70;;;;;;;;;;5030008;28;20234;-90
2022/06/15 09:49:24;;;;;;;2.37;2.17;;;;;;;;;;5029783;28;20187;-92
2022/06/15 09:52:03;;;;;;;3.00;2.70;;;;;;;;;;5029896;28;20179;-91
2022/06/15 09:54:38;;;;;;;3.37;2.23;;;;;;;;;;5029910;28;20203;-91
2022/06/15 09:57:06;;;;;;;4.63;2.30;;;;;;;;;;5030051;28;20215;-93
2022/06/15 09:59:33;;;;;;;2.30;2.10;;;;;;;;;;5030106;28;20209;-92
2022/06/15 10:02:02;;;;;;;5.37;2.87;;;;;;;;;;5029974;28;20199;-92
2022/06/15 10:04:32;;;;;;;3.43;2.57;;;;;;;;;;5029934;28;20578;-92
2022/06/15 10:07:01;;;;;;;2.93;2.57;;;;;;;;;;5029695;28;20198;-91
2022/06/15 10:09:31;;;;;;;5.43;2.53;;;;;;;;;;5029783;28;20195;-92
2022/06/15 10:12:56;;;;;;;4.23;2.43;;;;;;;;;;5029657;28;20263;-91
2022/06/15 10:14:50;;;;;;;2.40;2.20;;;;;;;;;;5029762;28;20206;-90
2022/06/15 10:17:24;;;;;;;2.37;2.00;;;;;;;;;;5029657;28;20199;-93
2022/06/15 10:19:53;;;;;;;4.83;2.63;;;;;;;;;;5029603;28;20179;-91
2022/06/15 10:22:25;;;;;;;4.77;2.80;;;;;;;;;;5029365;28;20209;-90
2022/06/15 10:24:52;;;;;;;4.20;2.37;;;;;;;;;;5029409;28;20218;-92
2022/06/15 10:27:23;;;;;;;7.47;2.80;;;;;;;;;;5029335;28;20192;-90
2022/06/15 10:30:02;;;;;;;5.13;2.63;;;;;;;;;;5029402;28;20252;-91
2022/06/15 10:32:31;;;;;;;5.70;2.97;;;;;;;;;;5029774;28;20651;-91
2022/06/15 10:35:09;;;;;;;9.30;2.97;;;;;;;;;;5029338;28;20195;-91
2022/06/15 10:37:38;;;;;;;3.73;2.60;;;;;;;;;;5029230;28;20248;-92
2022/06/15 10:40:17;;;;;;;2.30;2.10;;;;;;;;;;5029460;28;20195;-92
2022/06/15 10:42:50;;;;;;;2.60;2.40;;;;;;;;;;5029614;28;20179;-91
2022/06/15 10:45:23;;;;;;;3.73;2.27;;;;;;;;;;5029005;28;20271;-91
2022/06/15 10:47:53;;;;;;;4.57;2.50;;;;;;;;;;5029984;28;20186;-90
2022/06/15 10:50:26;;;;;;;3.13;2.77;;;;;;;;;;5029301;28;20625;-91
2022/06/15 10:52:59;;;;;;;5.20;4.67;;;;;;;;;;5029387;28;20255;-90
2022/06/15 11:04:13;;;;;;;2.73;2.53;;;;;;;;;;5032403;28;20194;-90
2022/06/15 11:06:45;;;;;;;2.43;2.20;;;;;;;;;;5032437;28;20207;-90
2022/06/15 11:09:25;;;;;;;4.73;3.20;;;;;;;;;;5032497;28;20179;-90
2022/06/15 11:11:53;;;;;;;3.77;2.50;;;;;;;;;;5032574;28;20183;-91
2022/06/15 11:14:25;;;;;;;3.03;2.43;;;;;;;;;;5032266;28;20199;-91
2022/06/15 11:19:40;;;;;;;3.47;2.37;;;;;;;;;;5002106;28;20203;-91
2022/06/15 11:22:13;;;;;;;3.97;3.07;;;;;;;;;;5032120;28;20255;-91
2022/06/15 11:24:46;;;;;;;4.93;2.77;;;;;;;;;;5032055;28;20191;-93
2022/06/15 11:27:17;;;;;;;3.87;2.33;;;;;;;;;;5032372;28;20616;-91
2022/06/15 11:29:52;;;;;;;4.77;2.73;;;;;;;;;;5032280;28;20199;-91
2022/06/15 11:32:31;;;;;;;5.27;2.63;;;;;;;;;;5032221;28;20199;-90
2022/06/15 11:35:01;;;;;;;3.10;2.40;;;;;;;;;;5032108;28;20665;-91
2022/06/15 11:37:38;;;;;;;3.37;2.70;;;;;;;;;;5031926;28;20248;-91
2022/06/15 11:40:17;;;;;;;2.47;2.27;;;;;;;;;;5032043;28;20183;-91
2022/06/15 11:42:48;;;;;;;4.73;2.70;;;;;;;;;;5031786;28;20643;-90
2022/06/15 11:45:16;;;;;;;8.03;2.50;;;;;;;;;;5031455;28;20244;-91
2022/06/15 11:47:55;;;;;;;5.03;2.53;;;;;;;;;;5031811;28;20187;-90
2022/06/15 11:50:29;;;;;;;4.20;2.47;;;;;;;;;;5031898;28;20183;-90
2022/06/15 11:53:03;;;;;;;4.73;2.80;;;;;;;;;;5031835;28;20183;-90
2022/06/15 11:55:38;;;;;;;2.27;2.10;;;;;;;;;;5032557;28;20263;-89
2022/06/15 11:58:26;;;;;;;5.47;2.90;;;;;;;;;;5031989;28;20235;-90
2022/06/15 12:01:02;;;;;;;3.30;2.23;;;;;;;;;;5031595;28;20640;-91
2022/06/15 12:03:52;;;;;;;2.37;2.17;;;;;;;;;;5031529;28;20190;-90
2022/06/15 12:06:26;;;;;;;3.57;2.20;;;;;;;;;;5019828;28;20223;-90
2022/06/15 12:09:03;;;;;;;3.53;2.50;;;;;;;;;;5031414;28;20187;-92
2022/06/15 12:14:27;;;;;;;2.97;2.73;;;;;;;;;;5031848;28;20291;-90
2022/06/15 12:16:57;;;;;;;3.37;3.07;;;;;;;;;;5031494;28;20240;-90
2022/06/15 12:19:30;;;;;;;5.40;3.30;;;;;;;;;;5031231;28;20255;-90
2022/06/15 12:22:00;;;;;;;4.50;2.53;;;;;;;;;;5031364;28;20187;-92
2022/06/15 12:24:31;;;;;;;2.77;2.57;;;;;;;;;;5031423;28;20202;-90
2022/06/15 12:27:04;;;;;;;2.70;2.50;;;;;;;;;;5031228;28;20271;-90
2022/06/15 12:29:46;;;;;;;4.83;3.13;;;;;;;;;;5031510;28;20667;-90
2022/06/15 12:32:35;;;;;;;3.00;2.70;;;;;;;;;;5031585;28;20739;-90
2022/06/15 12:35:12;;;;;;;3.13;2.70;;;;;;;;;;5032669;27;20229;-90
2022/06/15 12:37:44;;;;;;;3.47;2.93;;;;;;;;;;5031284;28;20251;-89
2022/06/15 12:40:20;;;;;;;2.77;2.50;;;;;;;;;;5031265;28;20247;-90
2022/06/15 12:42:51;;;;;;;4.23;2.97;;;;;;;;;;5030876;28;20243;-91
2022/06/15 12:45:22;;;;;;;3.30;2.90;;;;;;;;;;5030722;28;20294;-90
2022/06/15 12:47:53;;;;;;;3.87;3.23;;;;;;;;;;5030872;28;20198;-90
2022/06/15 12:50:38;;;;;;;5.40;2.97;;;;;;;;;;5031001;28;20263;-90
2022/06/15 12:53:12;;;;;;;7.83;3.37;;;;;;;;;;5030908;28;20194;-90
2022/06/15 12:55:47;;;;;;;5.00;3.00;;;;;;;;;;5031011;28;20239;-90
2022/06/15 12:58:20;;;;;;;4.00;3.00;;;;;;;;;;5030952;28;20190;-90
2022/06/15 13:00:53;;;;;;;3.87;3.50;;;;;;;;;;5030905;28;20195;-92
2022/06/15 13:03:40;;;;;;;3.57;3.27;;;;;;;;;;5030612;28;20187;-90
2022/06/15 13:06:22;;;;;;;5.47;3.43;;;;;;;;;;5030330;28;20263;-90
2022/06/15 13:09:08;;;;;;;3.73;3.30;;;;;;;;;;5030785;28;20203;-91
2022/06/15 13:11:51;;;;;;;6.43;3.40;;;;;;;;;;5030660;28;20186;-91
2022/06/15 13:14:20;;;;;;;5.50;3.90;;;;;;;;;;5030437;28;20278;-91
2022/06/15 13:17:01;;;;;;;4.10;3.77;;;;;;;;;;5030801;28;20682;-91
2022/06/15 13:19:30;;;;;;;4.90;3.27;;;;;;;;;;5030693;28;20255;-89
2022/06/15 13:22:06;;;;;;;3.90;3.60;;;;;;;;;;5030374;27;20230;-88
2022/06/15 13:24:51;;;;;;;6.13;4.50;;;;;;;;;;5030125;28;20186;-90
2022/06/15 13:27:25;;;;;;;6.83;3.90;;;;;;;;;;5030118;28;20289;-90
2022/06/15 13:29:54;;;;;;;4.50;4.10;;;;;;;;;;5031064;28;20183;-89
2022/06/15 13:32:50;;;;;;;4.40;3.77;;;;;;;;;;5030104;28;20206;-90
2022/06/15 13:35:22;;;;;;;5.10;4.70;;;;;;;;;;5041835;28;20266;-89
2022/06/15 13:38:15;;;;;;;4.80;4.30;;;;;;;;;;5029992;28;20663;-90
2022/06/15 13:41:18;;;;;;;6.57;6.07;;;;;;;;;;5030307;28;20183;-90
2022/06/15 13:44:15;;;;;;;6.10;5.53;;;;;;;;;;5029953;27;20198;-89
2022/06/15 13:46:58;;;;;;;5.30;4.77;;;;;;;;;;5029777;28;20230;-88
2022/06/15 13:49:43;;;;;;;7.07;5.70;;;;;;;;;;5030162;28;20244;-89
2022/06/15 13:52:18;;;;;;;11.87;4.10;;;;;;;;;;5029892;28;20191;-89
2022/06/15 13:55:19;;;;;;;5.70;5.00;;;;;;;;;;5030160;28;20194;-90
2022/06/15 13:58:04;;;;;;;4.90;4.50;;;;;;;;;;5029505;28;20238;-90
2022/06/15 14:00:43;;;;;;;6.30;4.67;;;;;;;;;;5029562;28;20187;-90
2022/06/15 14:03:24;;;;;;;5.07;4.53;;;;;;;;;;5029922;28;20306;-90
2022/06/15 14:06:06;;;;;;;4.43;4.03;;;;;;;;;;5029973;28;20222;-89
2022/06/15 14:08:46;;;;;;;4.07;3.77;;;;;;;;;;5029858;28;20209;-89
2022/06/15 14:11:20;;;;;;;4.23;3.93;;;;;;;;;;5029814;28;20198;-90
2022/06/15 14:14:13;;;;;;;4.87;4.07;;;;;;;;;;5029747;28;20198;-91
2022/06/15 14:17:11;;;;;;;5.87;4.53;;;;;;;;;;5029840;28;20665;-90
2022/06/15 14:19:40;;;;;;;4.33;3.97;;;;;;;;;;5022970;28;20198;-90
2022/06/15 14:22:09;;;;;;;5.03;4.63;;;;;;;;;;5029780;28;20261;-90
2022/06/15 14:24:38;;;;;;;4.80;4.40;;;;;;;;;;5029506;28;20206;-90
2022/06/15 14:27:07;;;;;;;4.50;4.20;;;;;;;;;;5029581;28;20222;-90
2022/06/15 14:29:38;;;;;;;4.50;4.10;;;;;;;;;;5029487;28;20267;-89
2022/06/15 14:32:08;;;;;;;5.20;4.47;;;;;;;;;;5029407;28;20183;-90
2022/06/15 14:34:37;;;;;;;7.03;5.23;;;;;;;;;;5029529;28;20233;-90
2022/06/15 14:37:10;;;;;;;4.90;4.50;;;;;;;;;;5032746;28;20199;-90
2022/06/15 14:39:45;;;;;;;4.20;3.90;;;;;;;;;;5023295;28;20268;-85
2022/06/15 14:42:18;;;;;;;9.80;5.10;;;;;;;;;;5031503;28;20281;-85
2022/06/15 14:44:46;;;;;;;4.60;4.17;;;;;;;;;;5018887;28;20264;-85
2022/06/15 14:47:17;;;;;;;4.83;4.43;;;;;;;;;;5011376;28;20235;-86
2022/06/15 14:49:47;;;;;;;7.27;6.20;;;;;;;;;;5012020;28;20188;-85
2022/06/15 14:52:23;;;;;;;5.93;5.37;;;;;;;;;;5011505;28;20742;-85
2022/06/15 14:54:53;;;;;;;5.30;4.80;;;;;;;;;;5011934;28;20278;-88
2022/06/15 14:57:21;;;;;;;5.27;4.67;;;;;;;;;;5012408;28;20200;-89
2022/06/15 14:59:51;;;;;;;4.97;4.57;;;;;;;;;;5012692;28;20204;-88
2022/06/15 15:02:20;;;;;;;11.57;5.33;;;;;;;;;;5012489;28;20249;-88
2022/06/15 15:04:49;;;;;;;9.13;6.13;;;;;;;;;;5012876;28;20657;-89
2022/06/15 15:10:32;;;;;;;6.93;5.47;;;;;;;;;;5012788;28;20186;-89
2022/06/15 15:13:19;;;;;;;12.90;7.73;;;;;;;;;;5012400;28;20187;-88
2022/06/15 15:15:48;;;;;;;15.13;8.37;;;;;;;;;;5012289;28;20227;-88
2022/06/15 15:18:19;;;;;;;5.80;5.20;;;;;;;;;;5012234;28;20203;-89
2022/06/15 15:20:50;;;;;;;6.67;6.07;;;;;;;;;;5012505;28;20224;-88
2022/06/15 15:23:17;;;;;;;6.73;6.03;;;;;;;;;;5012411;28;20622;-88
2022/06/15 15:25:50;;;;;;;6.03;5.53;;;;;;;;;;5012351;28;20219;-88
2022/06/15 15:34:11;;;;;;;6.90;5.70;;;;;;;;;;5012098;28;20313;-89
2022/06/15 15:39:35;;;;;;;7.13;5.93;;;;;;;;;;5012435;28;20179;-89
2022/06/15 15:42:02;;;;;;;6.53;5.93;;;;;;;;;;5011991;28;20199;-88